UAE9328 OMDW-YMML
Flight info
| Callsign | UAE9328 |
|---|---|
| Flight time | N/A |
| Altitude | 29000 |
| Route | ANVIX L223 TARDI N629 GIDAN P570 EMURU M300 NITIX/N0513F310 M300 VASTU P895 BIKOK M641 KAT N640 BASEV/N0507F330 N640 EMVAS G200 TATOD N509 MALBI/N0498F350 N509 PD T21 VIRUV/N0483F370 T21 LEC H119 ARBEY |
| Aircraft | B77W/H-SDE1E2E3FGHIJ2J3J4J5M1RWXY/LB1D1 |
Departure
| Time | 2026-05-06 15:41 |
|---|---|
| Airport | Al Maktoum International Airport (OMDW) |
Arrival
| Time | N/A |
|---|---|
| Airport | Melbourne Airport (YMML) |
| Time | Latitude | Longitude | Altitude | Speed | Heading |
|---|---|---|---|---|---|
| 2026-05-06 14:48 | 24.88909 | 55.14453 | 117 ft | 0 kts | 119° |
| 2026-05-06 15:21 | 24.88911 | 55.14450 | 116 ft | 2 kts | 119° |
| 2026-05-06 15:22 | 24.88918 | 55.14435 | 116 ft | 2 kts | 119° |
| 2026-05-06 15:22 | 24.88925 | 55.14421 | 115 ft | 2 kts | 120° |
| 2026-05-06 15:22 | 24.88933 | 55.14407 | 115 ft | 2 kts | 119° |
| 2026-05-06 15:22 | 24.88940 | 55.14392 | 114 ft | 2 kts | 118° |
| 2026-05-06 15:23 | 24.88944 | 55.14376 | 114 ft | 2 kts | 81° |
| 2026-05-06 15:23 | 24.88939 | 55.14361 | 115 ft | 2 kts | 50° |
| 2026-05-06 15:23 | 24.88927 | 55.14350 | 115 ft | 2 kts | 27° |
| 2026-05-06 15:23 | 24.88914 | 55.14343 | 115 ft | 2 kts | 28° |
| 2026-05-06 15:24 | 24.88906 | 55.14338 | 115 ft | 0 kts | 31° |
| 2026-05-06 15:27 | 24.88907 | 55.14339 | 115 ft | 0 kts | 31° |
| 2026-05-06 15:28 | 24.88915 | 55.14344 | 115 ft | 2 kts | 31° |
| 2026-05-06 15:28 | 24.88944 | 55.14363 | 115 ft | 6 kts | 31° |
| 2026-05-06 15:28 | 24.88993 | 55.14395 | 116 ft | 9 kts | 31° |
| 2026-05-06 15:28 | 24.89051 | 55.14434 | 117 ft | 9 kts | 31° |
| 2026-05-06 15:29 | 24.89102 | 55.14469 | 119 ft | 7 kts | 32° |
| 2026-05-06 15:29 | 24.89141 | 55.14496 | 120 ft | 6 kts | 32° |
| 2026-05-06 15:29 | 24.89179 | 55.14520 | 121 ft | 6 kts | 30° |
| 2026-05-06 15:29 | 24.89226 | 55.14550 | 122 ft | 9 kts | 30° |
| 2026-05-06 15:30 | 24.89290 | 55.14593 | 122 ft | 12 kts | 31° |
| 2026-05-06 15:30 | 24.89374 | 55.14649 | 120 ft | 14 kts | 31° |
| 2026-05-06 15:30 | 24.89464 | 55.14708 | 118 ft | 14 kts | 31° |
| 2026-05-06 15:30 | 24.89550 | 55.14766 | 117 ft | 14 kts | 31° |
| 2026-05-06 15:31 | 24.89629 | 55.14817 | 118 ft | 11 kts | 31° |
| 2026-05-06 15:31 | 24.89693 | 55.14860 | 119 ft | 10 kts | 31° |
| 2026-05-06 15:31 | 24.89749 | 55.14898 | 120 ft | 9 kts | 31° |
| 2026-05-06 15:32 | 24.89863 | 55.14973 | 120 ft | 11 kts | 31° |
| 2026-05-06 15:32 | 24.89910 | 55.15041 | 120 ft | 12 kts | 93° |
| 2026-05-06 15:32 | 24.89870 | 55.15129 | 121 ft | 13 kts | 122° |
| 2026-05-06 15:32 | 24.89818 | 55.15223 | 123 ft | 15 kts | 120° |
| 2026-05-06 15:33 | 24.89759 | 55.15331 | 124 ft | 17 kts | 121° |
| 2026-05-06 15:33 | 24.89692 | 55.15453 | 125 ft | 19 kts | 121° |
| 2026-05-06 15:33 | 24.89618 | 55.15590 | 126 ft | 20 kts | 122° |
| 2026-05-06 15:33 | 24.89549 | 55.15710 | 127 ft | 16 kts | 121° |
| 2026-05-06 15:34 | 24.89494 | 55.15809 | 128 ft | 14 kts | 121° |
| 2026-05-06 15:34 | 24.89445 | 55.15898 | 129 ft | 13 kts | 122° |
| 2026-05-06 15:34 | 24.89393 | 55.15991 | 128 ft | 14 kts | 121° |
| 2026-05-06 15:34 | 24.89341 | 55.16086 | 129 ft | 14 kts | 121° |
| 2026-05-06 15:35 | 24.89288 | 55.16181 | 129 ft | 14 kts | 121° |
| 2026-05-06 15:35 | 24.89236 | 55.16277 | 131 ft | 13 kts | 121° |
| 2026-05-06 15:35 | 24.89188 | 55.16365 | 132 ft | 13 kts | 121° |
| 2026-05-06 15:35 | 24.89141 | 55.16448 | 134 ft | 12 kts | 121° |
| 2026-05-06 15:36 | 24.89098 | 55.16525 | 136 ft | 10 kts | 121° |
| 2026-05-06 15:36 | 24.89064 | 55.16586 | 139 ft | 8 kts | 121° |
| 2026-05-06 15:36 | 24.89032 | 55.16645 | 141 ft | 9 kts | 121° |
| 2026-05-06 15:36 | 24.88997 | 55.16709 | 144 ft | 9 kts | 121° |
| 2026-05-06 15:37 | 24.88959 | 55.16775 | 146 ft | 11 kts | 121° |
| 2026-05-06 15:37 | 24.88909 | 55.16867 | 150 ft | 15 kts | 121° |
| 2026-05-06 15:37 | 24.88853 | 55.16969 | 155 ft | 15 kts | 121° |
| 2026-05-06 15:37 | 24.88797 | 55.17068 | 159 ft | 15 kts | 121° |
| 2026-05-06 15:38 | 24.88741 | 55.17169 | 163 ft | 15 kts | 121° |
| 2026-05-06 15:38 | 24.88683 | 55.17274 | 167 ft | 16 kts | 121° |
| 2026-05-06 15:38 | 24.88633 | 55.17365 | 169 ft | 9 kts | 121° |
| 2026-05-06 15:38 | 24.88598 | 55.17429 | 170 ft | 10 kts | 121° |
| 2026-05-06 15:39 | 24.88578 | 55.17498 | 170 ft | 8 kts | 71° |
| 2026-05-06 15:39 | 24.88617 | 55.17537 | 171 ft | 7 kts | 31° |
| 2026-05-06 15:39 | 24.88670 | 55.17573 | 172 ft | 9 kts | 31° |
| 2026-05-06 15:39 | 24.88738 | 55.17603 | 173 ft | 11 kts | 3° |
| 2026-05-06 15:40 | 24.88823 | 55.17583 | 173 ft | 13 kts | 336° |
| 2026-05-06 15:40 | 24.88878 | 55.17525 | 171 ft | 8 kts | 303° |
| 2026-05-06 15:40 | 24.88966 | 55.17366 | 162 ft | 51 kts | 301° |
| 2026-05-06 15:40 | 24.89260 | 55.16833 | 141 ft | 109 kts | 301° |
| 2026-05-06 15:41 | 24.89749 | 55.15949 | 127 ft | 159 kts | 301° |
| 2026-05-06 15:41 | 24.90410 | 55.14749 | 138 ft | 198 kts | 303° |
| 2026-05-06 15:41 | 24.91151 | 55.13445 | 508 ft | 208 kts | 304° |
| 2026-05-06 15:41 | 24.91937 | 55.12042 | 1103 ft | 214 kts | 303° |
| 2026-05-06 15:42 | 24.92698 | 55.10661 | 1774 ft | 215 kts | 303° |
| 2026-05-06 15:42 | 24.93483 | 55.09238 | 2385 ft | 215 kts | 302° |
| 2026-05-06 15:42 | 24.94278 | 55.07794 | 2522 ft | 227 kts | 302° |
| 2026-05-06 15:42 | 24.94977 | 55.06205 | 2728 ft | 234 kts | 285° |
| 2026-05-06 15:43 | 24.95091 | 55.04394 | 2973 ft | 238 kts | 261° |
| 2026-05-06 15:43 | 24.94542 | 55.02708 | 3311 ft | 238 kts | 238° |
| 2026-05-06 15:43 | 24.93404 | 55.01368 | 3602 ft | 240 kts | 214° |
| 2026-05-06 15:43 | 24.91909 | 55.00522 | 3920 ft | 240 kts | 195° |
| 2026-05-06 15:44 | 24.90257 | 55.00353 | 4220 ft | 240 kts | 172° |
| 2026-05-06 15:44 | 24.88660 | 55.00905 | 4552 ft | 241 kts | 149° |
| 2026-05-06 15:44 | 24.87387 | 55.02085 | 4894 ft | 241 kts | 127° |
| 2026-05-06 15:44 | 24.86563 | 55.03714 | 5262 ft | 242 kts | 110° |
| 2026-05-06 15:45 | 24.86270 | 55.05528 | 5631 ft | 243 kts | 89° |
| 2026-05-06 15:45 | 24.86513 | 55.07447 | 5779 ft | 257 kts | 80° |
| 2026-05-06 15:45 | 24.86887 | 55.09398 | 6091 ft | 263 kts | 79° |
| 2026-05-06 15:45 | 24.87285 | 55.11395 | 6262 ft | 275 kts | 79° |
| 2026-05-06 15:46 | 24.87701 | 55.13474 | 6602 ft | 280 kts | 79° |
| 2026-05-06 15:46 | 24.88122 | 55.15580 | 6925 ft | 284 kts | 79° |
| 2026-05-06 15:46 | 24.88569 | 55.17734 | 6955 ft | 283 kts | 74° |
| 2026-05-06 15:46 | 24.89240 | 55.19759 | 6983 ft | 287 kts | 70° |
| 2026-05-06 15:47 | 24.89799 | 55.21857 | 7360 ft | 285 kts | 89° |
| 2026-05-06 15:47 | 24.89648 | 55.24034 | 7847 ft | 280 kts | 101° |
| 2026-05-06 15:47 | 24.89314 | 55.26157 | 8290 ft | 281 kts | 101° |
| 2026-05-06 15:47 | 24.88971 | 55.28270 | 8666 ft | 283 kts | 102° |
| 2026-05-06 15:48 | 24.88620 | 55.30436 | 9070 ft | 284 kts | 102° |
| 2026-05-06 15:48 | 24.88274 | 55.32564 | 9459 ft | 286 kts | 102° |
| 2026-05-06 15:48 | 24.87920 | 55.34741 | 9880 ft | 287 kts | 101° |
| 2026-05-06 15:48 | 24.87561 | 55.36942 | 10203 ft | 292 kts | 101° |
| 2026-05-06 15:49 | 24.87195 | 55.39190 | 10452 ft | 299 kts | 101° |
| 2026-05-06 15:49 | 24.86817 | 55.41502 | 10589 ft | 313 kts | 101° |
| 2026-05-06 15:49 | 24.86423 | 55.43918 | 10627 ft | 329 kts | 100° |
| 2026-05-06 15:49 | 24.86006 | 55.46464 | 10710 ft | 344 kts | 100° |
| 2026-05-06 15:50 | 24.85570 | 55.49127 | 10766 ft | 359 kts | 100° |
| 2026-05-06 15:50 | 24.85115 | 55.51906 | 10824 ft | 374 kts | 100° |
| 2026-05-06 15:50 | 24.84643 | 55.54781 | 10942 ft | 387 kts | 100° |
| 2026-05-06 15:50 | 24.84160 | 55.57730 | 11260 ft | 393 kts | 100° |
| 2026-05-06 15:51 | 24.83666 | 55.60736 | 11749 ft | 395 kts | 99° |
| 2026-05-06 15:51 | 24.83174 | 55.63724 | 12234 ft | 396 kts | 99° |
| 2026-05-06 15:51 | 24.82678 | 55.66732 | 12652 ft | 400 kts | 99° |
| 2026-05-06 15:51 | 24.82183 | 55.69738 | 13111 ft | 403 kts | 99° |
| 2026-05-06 15:52 | 24.81675 | 55.72809 | 13618 ft | 405 kts | 99° |
| 2026-05-06 15:52 | 24.81174 | 55.75843 | 14088 ft | 407 kts | 99° |
| 2026-05-06 15:52 | 24.80655 | 55.78975 | 14573 ft | 410 kts | 99° |
| 2026-05-06 15:52 | 24.80146 | 55.82046 | 14848 ft | 415 kts | 99° |
| 2026-05-06 15:53 | 24.79623 | 55.85195 | 14869 ft | 413 kts | 99° |
| 2026-05-06 15:53 | 24.79090 | 55.88284 | 14882 ft | 412 kts | 102° |
| 2026-05-06 15:53 | 24.78210 | 55.91329 | 14898 ft | 414 kts | 111° |
| 2026-05-06 15:53 | 24.76890 | 55.94190 | 14900 ft | 415 kts | 121° |
| 2026-05-06 15:54 | 24.75180 | 55.96763 | 14914 ft | 417 kts | 130° |
| 2026-05-06 15:54 | 24.73131 | 55.99045 | 14928 ft | 419 kts | 135° |
| 2026-05-06 15:54 | 24.70975 | 56.01256 | 14931 ft | 419 kts | 135° |
| 2026-05-06 15:54 | 24.68815 | 56.03465 | 14928 ft | 419 kts | 135° |
| 2026-05-06 15:55 | 24.66656 | 56.05679 | 15066 ft | 427 kts | 135° |
| 2026-05-06 15:55 | 24.64505 | 56.07888 | 15675 ft | 425 kts | 135° |
| 2026-05-06 15:55 | 24.62322 | 56.10130 | 16288 ft | 424 kts | 135° |
| 2026-05-06 15:55 | 24.60138 | 56.12374 | 16713 ft | 428 kts | 135° |
| 2026-05-06 15:56 | 24.57965 | 56.14605 | 17096 ft | 432 kts | 135° |
| 2026-05-06 15:56 | 24.55879 | 56.17046 | 17518 ft | 434 kts | 130° |
| 2026-05-06 15:56 | 24.53878 | 56.19591 | 17946 ft | 437 kts | 129° |
| 2026-05-06 15:56 | 24.51874 | 56.22150 | 18330 ft | 441 kts | 129° |
| 2026-05-06 15:57 | 24.49858 | 56.24722 | 18697 ft | 445 kts | 130° |
| 2026-05-06 15:57 | 24.47825 | 56.27313 | 19075 ft | 448 kts | 130° |
| 2026-05-06 15:57 | 24.45787 | 56.29908 | 19444 ft | 452 kts | 130° |
| 2026-05-06 15:57 | 24.43714 | 56.32546 | 19805 ft | 455 kts | 130° |
| 2026-05-06 15:58 | 24.41619 | 56.35209 | 20140 ft | 459 kts | 130° |
| 2026-05-06 15:58 | 24.39520 | 56.37876 | 20502 ft | 462 kts | 130° |
| 2026-05-06 15:58 | 24.37388 | 56.40582 | 20852 ft | 465 kts | 131° |
| 2026-05-06 15:58 | 24.35269 | 56.43271 | 21187 ft | 468 kts | 131° |
| 2026-05-06 15:59 | 24.33136 | 56.45976 | 21502 ft | 471 kts | 131° |
| 2026-05-06 15:59 | 24.30949 | 56.48747 | 21843 ft | 474 kts | 131° |
| 2026-05-06 15:59 | 24.28792 | 56.51522 | 22143 ft | 477 kts | 128° |
| 2026-05-06 15:59 | 24.26828 | 56.54461 | 22459 ft | 480 kts | 126° |
| 2026-05-06 16:00 | 24.24876 | 56.57465 | 22785 ft | 483 kts | 126° |
| 2026-05-06 16:00 | 24.22907 | 56.60484 | 23096 ft | 486 kts | 126° |
| 2026-05-06 16:00 | 24.20941 | 56.63482 | 23391 ft | 488 kts | 126° |
| 2026-05-06 16:00 | 24.18914 | 56.66559 | 23677 ft | 491 kts | 127° |
| 2026-05-06 16:01 | 24.16889 | 56.69623 | 23953 ft | 494 kts | 127° |
| 2026-05-06 16:01 | 24.14834 | 56.72725 | 24237 ft | 497 kts | 127° |
| 2026-05-06 16:01 | 24.12799 | 56.75791 | 24509 ft | 499 kts | 127° |
| 2026-05-06 16:01 | 24.10746 | 56.78881 | 24788 ft | 502 kts | 127° |
| 2026-05-06 16:02 | 24.08684 | 56.81978 | 25045 ft | 504 kts | 127° |
| 2026-05-06 16:02 | 24.06580 | 56.85137 | 25284 ft | 508 kts | 127° |
| 2026-05-06 16:02 | 24.04488 | 56.88274 | 25538 ft | 510 kts | 127° |
| 2026-05-06 16:02 | 24.02392 | 56.91412 | 25818 ft | 513 kts | 127° |
| 2026-05-06 16:03 | 24.00295 | 56.94548 | 26086 ft | 515 kts | 127° |
| 2026-05-06 16:03 | 23.98141 | 56.97765 | 26338 ft | 518 kts | 127° |
| 2026-05-06 16:03 | 23.95999 | 57.00964 | 26599 ft | 520 kts | 127° |
| 2026-05-06 16:03 | 23.93858 | 57.04158 | 26883 ft | 522 kts | 127° |
| 2026-05-06 16:04 | 23.91706 | 57.07366 | 27154 ft | 524 kts | 127° |
| 2026-05-06 16:04 | 23.89527 | 57.10612 | 27419 ft | 526 kts | 127° |
| 2026-05-06 16:04 | 23.87340 | 57.13869 | 27641 ft | 529 kts | 127° |
| 2026-05-06 16:04 | 23.85148 | 57.17134 | 27879 ft | 531 kts | 127° |
| 2026-05-06 16:05 | 23.82978 | 57.20362 | 28188 ft | 532 kts | 127° |
| 2026-05-06 16:05 | 23.80764 | 57.23653 | 28575 ft | 531 kts | 127° |
| 2026-05-06 16:05 | 23.78579 | 57.26900 | 28811 ft | 533 kts | 127° |
| 2026-05-06 16:05 | 23.76375 | 57.30172 | 28812 ft | 533 kts | 127° |
| 2026-05-06 16:06 | 23.71933 | 57.36762 | 28843 ft | 530 kts | 127° |
| 2026-05-06 16:06 | 23.67376 | 57.43090 | 28841 ft | 531 kts | 129° |
| 2026-05-06 16:07 | 23.62745 | 57.49422 | 28854 ft | 530 kts | 129° |
| 2026-05-06 16:07 | 23.58174 | 57.55678 | 28866 ft | 531 kts | 129° |
| 2026-05-06 16:08 | 23.53498 | 57.62079 | 28867 ft | 530 kts | 129° |
| 2026-05-06 16:08 | 23.48859 | 57.68428 | 28873 ft | 531 kts | 129° |
| 2026-05-06 16:09 | 23.44260 | 57.74710 | 28899 ft | 531 kts | 130° |
| 2026-05-06 16:09 | 23.39609 | 57.81057 | 28924 ft | 530 kts | 129° |
| 2026-05-06 16:10 | 23.35013 | 57.87321 | 28954 ft | 529 kts | 129° |
| 2026-05-06 16:10 | 23.30505 | 57.93459 | 28977 ft | 528 kts | 129° |
| 2026-05-06 16:11 | 23.25883 | 57.99744 | 28972 ft | 529 kts | 129° |
| 2026-05-06 16:11 | 23.21457 | 58.06211 | 28985 ft | 531 kts | 124° |
| 2026-05-06 16:12 | 23.17300 | 58.12900 | 29012 ft | 530 kts | 124° |
| 2026-05-06 16:12 | 23.13129 | 58.19565 | 29026 ft | 530 kts | 125° |
| 2026-05-06 16:13 | 23.08952 | 58.26198 | 29037 ft | 530 kts | 125° |
| 2026-05-06 16:13 | 23.04769 | 58.32810 | 29032 ft | 529 kts | 126° |
| 2026-05-06 16:14 | 22.99687 | 58.38640 | 29042 ft | 527 kts | 143° |
| 2026-05-06 16:14 | 22.93542 | 58.43010 | 29032 ft | 526 kts | 149° |
| 2026-05-06 16:15 | 22.87269 | 58.47177 | 29017 ft | 526 kts | 149° |
| 2026-05-06 16:15 | 22.81012 | 58.51324 | 28995 ft | 525 kts | 149° |
| 2026-05-06 16:16 | 22.74762 | 58.55461 | 28967 ft | 525 kts | 149° |
| 2026-05-06 16:16 | 22.68485 | 58.59611 | 28957 ft | 525 kts | 149° |
| 2026-05-06 16:17 | 22.62223 | 58.63747 | 28953 ft | 524 kts | 149° |
| 2026-05-06 16:17 | 22.55974 | 58.67870 | 28937 ft | 525 kts | 150° |
| 2026-05-06 16:18 | 22.49716 | 58.71995 | 28927 ft | 524 kts | 150° |
| 2026-05-06 16:18 | 22.43482 | 58.76099 | 28920 ft | 524 kts | 150° |
| 2026-05-06 16:19 | 22.37241 | 58.80204 | 28923 ft | 524 kts | 150° |
| 2026-05-06 16:19 | 22.30974 | 58.84321 | 28911 ft | 524 kts | 149° |
| 2026-05-06 16:20 | 22.24780 | 58.88560 | 28898 ft | 525 kts | 143° |
| 2026-05-06 16:20 | 22.19587 | 58.94131 | 28897 ft | 526 kts | 130° |
| 2026-05-06 16:21 | 22.14925 | 59.00172 | 28899 ft | 525 kts | 130° |
| 2026-05-06 16:21 | 22.10256 | 59.06228 | 28900 ft | 525 kts | 130° |
| 2026-05-06 16:22 | 22.05561 | 59.12309 | 28896 ft | 526 kts | 130° |
| 2026-05-06 16:22 | 22.00872 | 59.18371 | 28887 ft | 526 kts | 130° |
| 2026-05-06 16:23 | 21.96176 | 59.24436 | 28873 ft | 527 kts | 130° |
| 2026-05-06 16:23 | 21.91464 | 59.30512 | 28867 ft | 525 kts | 130° |
| 2026-05-06 16:24 | 21.86768 | 59.36562 | 28856 ft | 526 kts | 130° |
| 2026-05-06 16:24 | 21.82064 | 59.42615 | 28851 ft | 526 kts | 130° |
| 2026-05-06 16:25 | 21.77391 | 59.48620 | 28845 ft | 525 kts | 129° |
| 2026-05-06 16:25 | 21.72668 | 59.54685 | 28842 ft | 526 kts | 129° |
| 2026-05-06 16:26 | 21.67971 | 59.60708 | 28842 ft | 525 kts | 129° |
| 2026-05-06 16:26 | 21.63279 | 59.66717 | 28841 ft | 525 kts | 130° |
| 2026-05-06 16:27 | 21.58564 | 59.72751 | 28843 ft | 526 kts | 130° |
| 2026-05-06 16:27 | 21.53836 | 59.78788 | 28847 ft | 526 kts | 130° |
| 2026-05-06 16:28 | 21.49104 | 59.84798 | 28849 ft | 525 kts | 130° |
| 2026-05-06 16:28 | 21.44385 | 59.90786 | 28846 ft | 525 kts | 130° |
| 2026-05-06 16:29 | 21.39652 | 59.96786 | 28842 ft | 524 kts | 130° |
| 2026-05-06 16:29 | 21.34955 | 60.02733 | 28841 ft | 524 kts | 130° |
| 2026-05-06 16:30 | 21.31004 | 60.07732 | 28843 ft | 524 kts | 130° |
| 2026-05-06 16:30 | 21.25486 | 60.14705 | 28845 ft | 524 kts | 130° |
| 2026-05-06 16:31 | 21.20794 | 60.20640 | 28847 ft | 524 kts | 129° |
| 2026-05-06 16:31 | 21.16060 | 60.26632 | 28848 ft | 523 kts | 129° |
| 2026-05-06 16:32 | 21.11363 | 60.32569 | 28847 ft | 524 kts | 129° |
| 2026-05-06 16:32 | 21.06634 | 60.38541 | 28850 ft | 523 kts | 129° |
| 2026-05-06 16:33 | 21.01935 | 60.44467 | 28850 ft | 522 kts | 129° |
| 2026-05-06 16:34 | 20.94874 | 60.53361 | 28849 ft | 522 kts | 129° |
| 2026-05-06 16:34 | 20.90165 | 60.59285 | 28849 ft | 522 kts | 129° |
| 2026-05-06 16:35 | 20.85437 | 60.65226 | 28847 ft | 522 kts | 129° |
| 2026-05-06 16:35 | 20.80712 | 60.71157 | 28845 ft | 523 kts | 129° |
| 2026-05-06 16:36 | 20.75983 | 60.77086 | 28846 ft | 522 kts | 130° |
| 2026-05-06 16:36 | 20.71285 | 60.82972 | 28847 ft | 522 kts | 130° |
| 2026-05-06 16:37 | 20.66544 | 60.88904 | 28851 ft | 521 kts | 130° |
| 2026-05-06 16:37 | 20.61868 | 60.94832 | 28849 ft | 521 kts | 126° |
| 2026-05-06 16:38 | 20.57901 | 61.01273 | 28856 ft | 520 kts | 121° |
| 2026-05-06 16:38 | 20.54020 | 61.07792 | 28856 ft | 520 kts | 121° |
| 2026-05-06 16:39 | 20.50124 | 61.14321 | 28865 ft | 520 kts | 121° |
| 2026-05-06 16:39 | 20.46231 | 61.20835 | 28868 ft | 520 kts | 121° |
| 2026-05-06 16:40 | 20.42349 | 61.27318 | 28870 ft | 519 kts | 121° |
| 2026-05-06 16:40 | 20.38435 | 61.33847 | 28865 ft | 519 kts | 121° |
| 2026-05-06 16:41 | 20.34558 | 61.40306 | 28865 ft | 520 kts | 121° |
| 2026-05-06 16:41 | 20.30647 | 61.46814 | 28868 ft | 519 kts | 121° |
| 2026-05-06 16:42 | 20.26733 | 61.53320 | 28868 ft | 519 kts | 121° |
| 2026-05-06 16:42 | 20.22845 | 61.59774 | 28867 ft | 519 kts | 121° |
| 2026-05-06 16:43 | 20.18941 | 61.66248 | 28865 ft | 518 kts | 122° |
| 2026-05-06 16:43 | 20.15021 | 61.72741 | 28867 ft | 517 kts | 122° |
| 2026-05-06 16:44 | 20.11120 | 61.79196 | 28867 ft | 518 kts | 122° |
| 2026-05-06 16:44 | 20.07193 | 61.85686 | 28867 ft | 518 kts | 121° |
| 2026-05-06 16:45 | 20.03274 | 61.92157 | 28867 ft | 517 kts | 121° |
| 2026-05-06 16:45 | 19.99360 | 61.98611 | 28870 ft | 516 kts | 121° |
| 2026-05-06 16:46 | 19.95438 | 62.05073 | 28869 ft | 516 kts | 122° |
| 2026-05-06 16:46 | 19.91517 | 62.11526 | 28865 ft | 516 kts | 122° |
| 2026-05-06 16:47 | 19.87611 | 62.17945 | 28864 ft | 517 kts | 122° |
| 2026-05-06 16:47 | 19.83687 | 62.24389 | 28861 ft | 516 kts | 122° |
| 2026-05-06 16:48 | 19.79784 | 62.30792 | 28856 ft | 516 kts | 122° |
| 2026-05-06 16:48 | 19.75865 | 62.37213 | 28848 ft | 515 kts | 122° |
| 2026-05-06 16:49 | 19.71939 | 62.43638 | 28851 ft | 516 kts | 122° |
| 2026-05-06 16:49 | 19.68024 | 62.50039 | 28854 ft | 515 kts | 122° |
| 2026-05-06 16:50 | 19.64111 | 62.56430 | 28856 ft | 516 kts | 122° |
| 2026-05-06 16:50 | 19.60165 | 62.62868 | 28868 ft | 515 kts | 122° |
| 2026-05-06 16:51 | 19.56231 | 62.69279 | 28868 ft | 515 kts | 122° |
| 2026-05-06 16:51 | 19.52305 | 62.75670 | 28879 ft | 515 kts | 122° |
| 2026-05-06 16:52 | 19.48391 | 62.82035 | 28872 ft | 514 kts | 122° |
| 2026-05-06 16:52 | 19.44458 | 62.88425 | 28871 ft | 513 kts | 122° |
| 2026-05-06 16:53 | 19.40528 | 62.94803 | 28869 ft | 514 kts | 122° |
| 2026-05-06 16:53 | 19.36634 | 63.01116 | 28872 ft | 513 kts | 122° |
| 2026-05-06 16:54 | 19.32684 | 63.07513 | 28868 ft | 514 kts | 122° |
| 2026-05-06 16:54 | 19.28742 | 63.13891 | 28868 ft | 515 kts | 122° |
| 2026-05-06 16:55 | 19.24790 | 63.20277 | 28868 ft | 514 kts | 122° |
| 2026-05-06 16:55 | 19.20861 | 63.26620 | 28868 ft | 514 kts | 122° |
| 2026-05-06 16:56 | 19.16928 | 63.32963 | 28871 ft | 513 kts | 122° |
| 2026-05-06 16:56 | 19.13001 | 63.39290 | 28870 ft | 512 kts | 122° |
| 2026-05-06 16:57 | 19.09055 | 63.45641 | 28868 ft | 514 kts | 122° |
| 2026-05-06 16:57 | 19.05115 | 63.51975 | 28868 ft | 513 kts | 122° |
| 2026-05-06 16:58 | 19.01173 | 63.58306 | 28869 ft | 513 kts | 122° |
| 2026-05-06 16:58 | 18.97219 | 63.64652 | 28871 ft | 513 kts | 122° |
| 2026-05-06 16:59 | 18.93280 | 63.70971 | 28872 ft | 512 kts | 123° |
| 2026-05-06 16:59 | 18.89348 | 63.77270 | 28870 ft | 512 kts | 123° |
| 2026-05-06 17:00 | 18.85423 | 63.83552 | 28868 ft | 512 kts | 122° |
| 2026-05-06 17:00 | 18.81485 | 63.89851 | 28869 ft | 512 kts | 122° |
| 2026-05-06 17:01 | 18.77514 | 63.96194 | 28870 ft | 512 kts | 122° |
| 2026-05-06 17:01 | 18.73572 | 64.02483 | 28869 ft | 512 kts | 122° |
| 2026-05-06 17:02 | 18.69630 | 64.08768 | 28873 ft | 512 kts | 122° |
| 2026-05-06 17:02 | 18.65675 | 64.15067 | 28876 ft | 511 kts | 123° |
| 2026-05-06 17:03 | 18.61735 | 64.21336 | 28874 ft | 511 kts | 122° |
| 2026-05-06 17:03 | 18.57799 | 64.27591 | 28879 ft | 511 kts | 122° |
| 2026-05-06 17:04 | 18.53835 | 64.33886 | 28884 ft | 510 kts | 122° |
| 2026-05-06 17:04 | 18.49893 | 64.40139 | 28886 ft | 510 kts | 122° |
| 2026-05-06 17:05 | 18.45963 | 64.46367 | 28881 ft | 511 kts | 122° |
| 2026-05-06 17:05 | 18.41981 | 64.52671 | 28881 ft | 511 kts | 122° |
| 2026-05-06 17:06 | 18.38021 | 64.58935 | 28883 ft | 510 kts | 122° |
| 2026-05-06 17:06 | 18.34056 | 64.65199 | 28881 ft | 510 kts | 123° |
| 2026-05-06 17:07 | 18.30122 | 64.71409 | 28886 ft | 509 kts | 123° |
| 2026-05-06 17:07 | 18.26158 | 64.77661 | 28881 ft | 510 kts | 123° |
| 2026-05-06 17:08 | 18.22206 | 64.83888 | 28876 ft | 510 kts | 123° |
| 2026-05-06 17:08 | 18.18248 | 64.90118 | 28872 ft | 510 kts | 123° |
| 2026-05-06 17:09 | 18.14295 | 64.96333 | 28870 ft | 510 kts | 123° |
| 2026-05-06 17:09 | 18.10338 | 65.02549 | 28869 ft | 509 kts | 122° |
| 2026-05-06 17:10 | 18.06368 | 65.08779 | 28868 ft | 509 kts | 123° |
| 2026-05-06 17:10 | 18.02460 | 65.14908 | 28870 ft | 510 kts | 122° |
| 2026-05-06 17:11 | 17.98489 | 65.21129 | 28868 ft | 510 kts | 122° |
| 2026-05-06 17:11 | 17.94484 | 65.27396 | 28870 ft | 510 kts | 122° |
| 2026-05-06 17:12 | 17.90522 | 65.33592 | 28871 ft | 510 kts | 123° |
| 2026-05-06 17:12 | 17.86550 | 65.39796 | 28867 ft | 510 kts | 122° |
| 2026-05-06 17:13 | 17.82573 | 65.46003 | 28863 ft | 510 kts | 122° |
| 2026-05-06 17:13 | 17.78629 | 65.52151 | 28867 ft | 510 kts | 122° |
| 2026-05-06 17:14 | 17.74640 | 65.58366 | 28866 ft | 510 kts | 122° |
| 2026-05-06 17:14 | 17.70658 | 65.64562 | 28867 ft | 510 kts | 122° |
| 2026-05-06 17:15 | 17.66690 | 65.70732 | 28868 ft | 510 kts | 123° |
| 2026-05-06 17:15 | 17.62677 | 65.76965 | 28868 ft | 510 kts | 123° |
| 2026-05-06 17:16 | 17.58751 | 65.83219 | 28870 ft | 510 kts | 122° |
| 2026-05-06 17:16 | 17.54898 | 65.89493 | 28874 ft | 510 kts | 122° |
| 2026-05-06 17:17 | 17.51039 | 65.95761 | 28884 ft | 509 kts | 122° |
| 2026-05-06 17:17 | 17.47187 | 66.02006 | 28889 ft | 509 kts | 122° |
| 2026-05-06 17:18 | 17.43313 | 66.08277 | 28889 ft | 510 kts | 122° |
| 2026-05-06 17:18 | 17.39428 | 66.14557 | 28886 ft | 510 kts | 122° |
| 2026-05-06 17:19 | 17.35583 | 66.20766 | 28886 ft | 509 kts | 122° |
| 2026-05-06 17:19 | 17.31700 | 66.27031 | 28885 ft | 510 kts | 122° |
| 2026-05-06 17:20 | 17.27817 | 66.33290 | 28883 ft | 510 kts | 122° |
| 2026-05-06 17:20 | 17.23907 | 66.39584 | 28881 ft | 510 kts | 122° |
| 2026-05-06 17:21 | 17.20040 | 66.45805 | 28879 ft | 509 kts | 122° |
| 2026-05-06 17:21 | 17.16158 | 66.52045 | 28875 ft | 509 kts | 122° |
| 2026-05-06 17:22 | 17.12278 | 66.58274 | 28870 ft | 510 kts | 122° |
| 2026-05-06 17:22 | 17.08402 | 66.64493 | 28869 ft | 510 kts | 122° |
| 2026-05-06 17:23 | 17.04481 | 66.70778 | 28870 ft | 510 kts | 122° |
| 2026-05-06 17:23 | 17.00601 | 66.76990 | 28870 ft | 510 kts | 122° |
| 2026-05-06 17:24 | 16.96678 | 66.83266 | 28870 ft | 509 kts | 122° |
| 2026-05-06 17:24 | 16.92798 | 66.89468 | 28870 ft | 509 kts | 122° |
| 2026-05-06 17:25 | 16.88916 | 66.95667 | 28869 ft | 508 kts | 122° |
| 2026-05-06 17:25 | 16.85016 | 67.01892 | 28869 ft | 510 kts | 122° |
| 2026-05-06 17:26 | 16.81114 | 67.08112 | 28868 ft | 511 kts | 122° |
| 2026-05-06 17:26 | 16.77200 | 67.14346 | 28868 ft | 510 kts | 122° |
| 2026-05-06 17:27 | 16.73294 | 67.20561 | 28868 ft | 509 kts | 122° |
| 2026-05-06 17:27 | 16.69401 | 67.26751 | 28867 ft | 509 kts | 122° |
| 2026-05-06 17:28 | 16.65480 | 67.32979 | 28862 ft | 509 kts | 122° |
| 2026-05-06 17:28 | 16.61584 | 67.39163 | 28861 ft | 510 kts | 122° |
| 2026-05-06 17:29 | 16.57660 | 67.45385 | 28858 ft | 511 kts | 122° |
| 2026-05-06 17:29 | 16.53724 | 67.51620 | 28856 ft | 511 kts | 122° |
| 2026-05-06 17:30 | 16.49803 | 67.57828 | 28857 ft | 511 kts | 122° |
| 2026-05-06 17:30 | 16.45862 | 67.64060 | 28856 ft | 510 kts | 122° |
| 2026-05-06 17:31 | 16.41949 | 67.70245 | 28855 ft | 510 kts | 122° |
| 2026-05-06 17:31 | 16.38024 | 67.76440 | 28855 ft | 510 kts | 122° |
| 2026-05-06 17:32 | 16.34092 | 67.82642 | 28856 ft | 510 kts | 123° |
| 2026-05-06 17:32 | 16.30146 | 67.88863 | 28859 ft | 511 kts | 123° |
| 2026-05-06 17:33 | 16.26227 | 67.95035 | 28866 ft | 511 kts | 122° |
| 2026-05-06 17:33 | 16.22303 | 68.01275 | 28869 ft | 511 kts | 122° |
| 2026-05-06 17:34 | 16.18388 | 68.07503 | 28869 ft | 510 kts | 122° |
| 2026-05-06 17:34 | 16.14489 | 68.13697 | 28869 ft | 510 kts | 122° |
| 2026-05-06 17:35 | 16.10568 | 68.19919 | 28869 ft | 509 kts | 122° |
| 2026-05-06 17:35 | 16.06680 | 68.26083 | 28867 ft | 510 kts | 122° |
| 2026-05-06 17:36 | 16.00814 | 68.35373 | 28862 ft | 510 kts | 122° |
| 2026-05-06 17:36 | 15.96891 | 68.41579 | 28860 ft | 510 kts | 122° |
| 2026-05-06 17:37 | 15.92997 | 68.47735 | 28858 ft | 509 kts | 122° |
| 2026-05-06 17:37 | 15.89094 | 68.53899 | 28858 ft | 509 kts | 122° |
| 2026-05-06 17:38 | 15.85170 | 68.60091 | 28856 ft | 508 kts | 122° |
| 2026-05-06 17:38 | 15.81273 | 68.66235 | 28852 ft | 509 kts | 123° |
| 2026-05-06 17:39 | 15.77347 | 68.72420 | 28855 ft | 510 kts | 123° |
| 2026-05-06 17:39 | 15.73419 | 68.78604 | 28852 ft | 510 kts | 123° |
| 2026-05-06 17:40 | 15.69498 | 68.84771 | 28845 ft | 509 kts | 123° |
| 2026-05-06 17:40 | 15.65587 | 68.90917 | 28850 ft | 509 kts | 123° |
| 2026-05-06 17:41 | 15.61656 | 68.97088 | 28848 ft | 509 kts | 123° |
| 2026-05-06 17:41 | 15.57726 | 69.03254 | 28846 ft | 507 kts | 123° |
| 2026-05-06 17:42 | 15.53815 | 69.09385 | 28848 ft | 508 kts | 123° |
| 2026-05-06 17:42 | 15.49894 | 69.15527 | 28846 ft | 509 kts | 123° |
| 2026-05-06 17:43 | 15.45967 | 69.21673 | 28844 ft | 509 kts | 123° |
| 2026-05-06 17:43 | 15.42045 | 69.27806 | 28846 ft | 509 kts | 123° |
| 2026-05-06 17:44 | 15.38096 | 69.33976 | 28842 ft | 508 kts | 123° |
| 2026-05-06 17:44 | 15.34165 | 69.40112 | 28841 ft | 508 kts | 123° |
| 2026-05-06 17:45 | 15.30243 | 69.46232 | 28837 ft | 508 kts | 123° |
| 2026-05-06 17:45 | 15.26303 | 69.52374 | 28838 ft | 508 kts | 123° |
| 2026-05-06 17:46 | 15.22375 | 69.58491 | 28834 ft | 507 kts | 123° |
| 2026-05-06 17:46 | 15.18443 | 69.64610 | 28836 ft | 508 kts | 123° |
| 2026-05-06 17:47 | 15.14519 | 69.70712 | 28843 ft | 508 kts | 123° |
| 2026-05-06 17:47 | 15.10601 | 69.76811 | 28848 ft | 508 kts | 123° |
| 2026-05-06 17:48 | 15.06699 | 69.82968 | 28850 ft | 508 kts | 123° |
| 2026-05-06 17:48 | 15.02789 | 69.89133 | 28852 ft | 508 kts | 123° |
| 2026-05-06 17:49 | 14.98903 | 69.95255 | 28851 ft | 508 kts | 123° |
| 2026-05-06 17:49 | 14.94986 | 70.01418 | 28847 ft | 509 kts | 123° |
| 2026-05-06 17:50 | 14.91085 | 70.07552 | 28846 ft | 508 kts | 123° |
| 2026-05-06 17:50 | 14.87181 | 70.13683 | 28842 ft | 508 kts | 123° |
| 2026-05-06 17:51 | 14.83272 | 70.19819 | 28841 ft | 508 kts | 123° |
| 2026-05-06 17:51 | 14.79362 | 70.25950 | 28838 ft | 508 kts | 123° |
| 2026-05-06 17:52 | 14.75443 | 70.32091 | 28838 ft | 508 kts | 123° |
| 2026-05-06 17:52 | 14.71526 | 70.38224 | 28836 ft | 508 kts | 123° |
| 2026-05-06 17:53 | 14.67604 | 70.44360 | 28832 ft | 508 kts | 123° |
| 2026-05-06 17:53 | 14.63699 | 70.50465 | 28828 ft | 507 kts | 123° |
| 2026-05-06 17:54 | 14.59802 | 70.56552 | 28824 ft | 508 kts | 123° |
| 2026-05-06 17:54 | 14.55884 | 70.62668 | 28820 ft | 509 kts | 123° |
| 2026-05-06 17:55 | 14.51951 | 70.68802 | 28818 ft | 508 kts | 123° |
| 2026-05-06 17:55 | 14.48011 | 70.74942 | 28816 ft | 509 kts | 123° |
| 2026-05-06 17:56 | 14.44097 | 70.81039 | 28814 ft | 509 kts | 123° |
| 2026-05-06 17:56 | 14.40155 | 70.87174 | 28811 ft | 508 kts | 123° |
| 2026-05-06 17:57 | 14.36223 | 70.93288 | 28808 ft | 507 kts | 123° |
| 2026-05-06 17:57 | 14.32336 | 70.99390 | 28805 ft | 507 kts | 123° |
| 2026-05-06 17:58 | 14.28470 | 71.05520 | 28806 ft | 507 kts | 123° |
| 2026-05-06 17:58 | 14.24600 | 71.11648 | 28807 ft | 507 kts | 123° |
| 2026-05-06 17:59 | 14.20723 | 71.17780 | 28805 ft | 508 kts | 123° |
| 2026-05-06 17:59 | 14.16836 | 71.23922 | 28805 ft | 508 kts | 123° |
| 2026-05-06 18:00 | 14.12967 | 71.30030 | 28811 ft | 508 kts | 123° |
| 2026-05-06 18:00 | 14.09074 | 71.36171 | 28823 ft | 508 kts | 123° |
| 2026-05-06 18:01 | 14.05196 | 71.42282 | 28822 ft | 508 kts | 123° |
| 2026-05-06 18:01 | 14.01303 | 71.48414 | 28817 ft | 509 kts | 123° |
| 2026-05-06 18:02 | 13.97401 | 71.54555 | 28815 ft | 509 kts | 123° |
| 2026-05-06 18:02 | 13.93492 | 71.60704 | 28813 ft | 509 kts | 123° |
| 2026-05-06 18:03 | 13.89593 | 71.66830 | 28817 ft | 509 kts | 123° |
| 2026-05-06 18:03 | 13.85725 | 71.72905 | 28824 ft | 509 kts | 123° |
| 2026-05-06 18:04 | 13.81808 | 71.79051 | 28827 ft | 509 kts | 123° |
| 2026-05-06 18:04 | 13.77915 | 71.85156 | 28825 ft | 509 kts | 123° |
| 2026-05-06 18:05 | 13.74001 | 71.91289 | 28826 ft | 509 kts | 123° |
| 2026-05-06 18:05 | 13.70078 | 71.97431 | 28827 ft | 509 kts | 123° |
| 2026-05-06 18:06 | 13.65840 | 72.03301 | 28828 ft | 510 kts | 129° |
| 2026-05-06 18:06 | 13.61362 | 72.08964 | 28825 ft | 509 kts | 129° |
| 2026-05-06 18:07 | 13.56884 | 72.14624 | 28819 ft | 508 kts | 129° |
| 2026-05-06 18:07 | 13.52395 | 72.20297 | 28811 ft | 508 kts | 129° |
| 2026-05-06 18:08 | 13.47917 | 72.25953 | 28809 ft | 508 kts | 129° |
| 2026-05-06 18:08 | 13.43412 | 72.31641 | 28809 ft | 509 kts | 129° |
| 2026-05-06 18:09 | 13.38917 | 72.37313 | 28812 ft | 508 kts | 129° |
| 2026-05-06 18:09 | 13.34451 | 72.42946 | 28811 ft | 508 kts | 129° |
| 2026-05-06 18:10 | 13.29940 | 72.48631 | 28814 ft | 507 kts | 129° |
| 2026-05-06 18:10 | 13.25457 | 72.54277 | 28813 ft | 508 kts | 129° |
| 2026-05-06 18:11 | 13.20963 | 72.59934 | 28813 ft | 509 kts | 129° |
| 2026-05-06 18:11 | 13.16475 | 72.65580 | 28807 ft | 508 kts | 129° |
| 2026-05-06 18:12 | 13.11968 | 72.71245 | 28805 ft | 509 kts | 129° |
| 2026-05-06 18:12 | 13.07504 | 72.76853 | 28806 ft | 509 kts | 129° |
| 2026-05-06 18:13 | 13.03002 | 72.82506 | 28808 ft | 508 kts | 129° |
| 2026-05-06 18:13 | 12.98523 | 72.88126 | 28809 ft | 508 kts | 129° |
| 2026-05-06 18:14 | 12.94021 | 72.93771 | 28808 ft | 509 kts | 129° |
| 2026-05-06 18:14 | 12.89532 | 72.99397 | 28808 ft | 507 kts | 129° |
| 2026-05-06 18:15 | 12.85073 | 73.04981 | 28807 ft | 509 kts | 129° |
| 2026-05-06 18:15 | 12.80569 | 73.10619 | 28807 ft | 509 kts | 129° |
| 2026-05-06 18:16 | 12.76064 | 73.16252 | 28809 ft | 510 kts | 129° |
| 2026-05-06 18:16 | 12.71560 | 73.21883 | 28812 ft | 510 kts | 129° |
| 2026-05-06 18:17 | 12.67057 | 73.27508 | 28812 ft | 509 kts | 129° |
| 2026-05-06 18:17 | 12.62586 | 73.33090 | 28813 ft | 508 kts | 129° |
| 2026-05-06 18:18 | 12.58078 | 73.38715 | 28814 ft | 509 kts | 129° |
| 2026-05-06 18:18 | 12.53577 | 73.44327 | 28815 ft | 509 kts | 129° |
| 2026-05-06 18:19 | 12.49181 | 73.49806 | 28815 ft | 508 kts | 129° |
| 2026-05-06 18:19 | 12.44673 | 73.55420 | 28816 ft | 508 kts | 129° |
| 2026-05-06 18:20 | 12.40189 | 73.61002 | 28818 ft | 508 kts | 129° |
| 2026-05-06 18:20 | 12.35695 | 73.66592 | 28823 ft | 509 kts | 129° |
| 2026-05-06 18:21 | 12.31181 | 73.72205 | 28824 ft | 508 kts | 129° |
| 2026-05-06 18:21 | 12.26660 | 73.77822 | 28824 ft | 508 kts | 129° |
| 2026-05-06 18:22 | 12.22160 | 73.83410 | 28814 ft | 509 kts | 129° |
| 2026-05-06 18:22 | 12.17626 | 73.89036 | 28804 ft | 511 kts | 129° |
| 2026-05-06 18:23 | 12.13092 | 73.94659 | 28802 ft | 510 kts | 129° |
| 2026-05-06 18:23 | 12.08602 | 74.00224 | 28803 ft | 508 kts | 129° |
| 2026-05-06 18:24 | 12.04083 | 74.05823 | 28805 ft | 508 kts | 129° |
| 2026-05-06 18:24 | 11.99532 | 74.11458 | 28807 ft | 509 kts | 129° |
| 2026-05-06 18:25 | 11.94995 | 74.17072 | 28807 ft | 509 kts | 129° |
| 2026-05-06 18:25 | 11.90485 | 74.22649 | 28807 ft | 510 kts | 129° |
| 2026-05-06 18:26 | 11.85946 | 74.28258 | 28806 ft | 509 kts | 129° |
| 2026-05-06 18:26 | 11.81419 | 74.33851 | 28806 ft | 509 kts | 129° |
| 2026-05-06 18:27 | 11.76894 | 74.39437 | 28806 ft | 509 kts | 129° |
| 2026-05-06 18:27 | 11.72374 | 74.45014 | 28806 ft | 509 kts | 129° |
| 2026-05-06 18:28 | 11.67862 | 74.50577 | 28806 ft | 509 kts | 129° |
| 2026-05-06 18:28 | 11.63309 | 74.56190 | 28806 ft | 509 kts | 129° |
| 2026-05-06 18:29 | 11.58789 | 74.61758 | 28806 ft | 511 kts | 129° |
| 2026-05-06 18:29 | 11.54217 | 74.67386 | 28806 ft | 512 kts | 129° |